Date,TemperatureHighF,TemperatureAvgF,TemperatureLowF,DewpointHighF,DewpointAvgF,DewpointLowF,HumidityHigh,HumidityAvg,HumidityLow,PressureMaxIn,PressureMinIn,WindSpeedMaxMPH,WindSpeedAvgMPH,GustSpeedMaxMPH,PrecipitationSumIn
2013-1-1,32,17,11,31,-14,-100,95,63,76,29.34,29.21,4,-284,9,0.00
2013-1-2,20,10,2,13,-18,-100,93,60,56,29.43,29.32,2,-231,3,0.00
2013-1-3,32,19,9,26,-9,-100,86,61,71,29.46,29.35,6,-224,14,0.00
2013-1-4,29,20,16,22,-5,-100,88,62,68,29.48,29.43,10,-198,14,0.00
2013-1-5,39,24,19,32,0,-100,94,67,67,29.49,29.29,5,-207,10,0.06
2013-1-6,36,21,25,33,-8,-100,91,64,83,30.36,29.17,9,-274,15,0.03
2013-1-7,34,26,14,27,22,12,95,86,74,30.47,30.24,6,1,11,0.00
2013-1-8,43,33,23,32,28,20,93,80,64,30.30,30.20,5,1,8,0.00
2013-1-9,48,41,30,40,35,28,94,81,64,30.51,30.17,8,2,13,0.05
2013-1-10,44,35,25,40,31,24,96,84,70,30.51,30.05,11,2,14,0.03
2013-1-11,58,53,44,54,49,41,97,88,78,30.05,29.81,9,2,14,0.66
2013-1-12,64,55,51,58,52,48,98,90,77,29.96,29.67,7,1,12,1.06
2013-1-13,61,40,24,60,39,21,98,95,88,30.18,29.61,8,2,15,1.22
2013-1-14,24,21,18,21,18,15,90,86,80,30.48,30.19,7,2,11,0.00
2013-1-15,31,26,19,24,20,17,92,81,68,30.43,30.12,8,2,12,0.00
2013-1-16,36,29,24,26,24,22,94,82,63,30.12,29.97,5,1,9,0.00
2013-1-17,39,32,20,32,26,15,91,79,65,30.42,30.09,7,2,13,0.00
2013-1-18,39,28,16,27,21,14,93,75,52,30.50,30.14,9,2,18,0.00
2013-1-19,52,43,35,38,31,26,75,63,51,30.14,29.84,14,4,18,0.00
2013-1-20,45,27,22,37,17,12,77,66,58,30.25,29.86,13,3,22,0.00
2013-1-21,22,15,8,14,8,-1,82,71,61,30.28,30.13,12,4,18,0.00
2013-1-22,15,9,4,3,0,-2,80,67,55,30.43,30.28,8,3,17,0.00
2013-1-23,22,16,8,15,8,1,82,69,51,30.39,30.13,8,1,19,0.00
2013-1-24,24,17,8,14,9,4,86,70,51,30.64,30.19,6,2,16,0.00
2013-1-25,27,23,18,21,16,9,89,77,63,30.46,30.05,6,1,11,0.00
2013-1-26,28,20,12,20,15,10,92,81,68,30.46,30.11,3,1,10,0.00
2013-1-27,36,27,14,35,23,12,95,83,72,30.46,30.09,9,2,13,0.33
2013-1-28,51,47,37,50,46,36,98,96,93,30.11,29.96,10,3,14,0.15
2013-1-29,62,56,51,58,54,50,98,92,86,29.98,29.43,10,4,18,0.00
2013-1-30,65,48,29,60,45,26,98,91,83,29.52,29.20,18,4,29,0.92
2013-1-31,28,22,11,25,17,5,91,80,73,30.10,29.54,13,5,21,0.00